Al Hamla — V7MX9 — position and weather

sailwx.info

Track history (hours):
 
Tides and Currents Weather Stations Pressure Air Temp Water Temp Dewpoint Dewpoint Depression Visibility Wind Speed Wind Dir Waves Ship Positions

Al Hamla

Last reported at 2015-Jan-31 09:20 UTC. Time now 2015-Feb-01 05:43 UTC.
Position N 01°54' E 102°20'.

Length 350 m; draft 9.5 m.

Type: Tanker. MMSI: 538002922.

Date/timePositionNaut miles runAvg speedWind from/ knotsBaromVisibWave heightAir tempDewpointWater temp
2015-Jan-31 09:20N 01°54' E 102°20'1316.7
2015-Jan-31 08:33N 01°49' E 102°32'8416.5
2015-Jan-31 03:28N 01°10' E 103°47'1010.4
2015-Jan-31 02:33N 01°14' E 103°55'  
2015-Jan-25 06:33N 33°55' E 134°56'1515.7
2015-Jan-25 05:33N 34°10' E 134°57'1211.8
2015-Jan-25 04:33N 34°22' E 134°60'1313.1
2015-Jan-25 03:33N 34°33' E 135°07'8 7.3
2015-Jan-25 02:31N 34°37' E 134°59'1211.8
2015-Jan-25 01:29N 34°33' E 134°46'1311.5
2015-Jan-25 00:20N 34°45' E 134°41'8 0.2
2015-Jan-23 02:33N 34°37' E 134°42'1212.2
2015-Jan-23 01:32N 34°37' E 134°57'10 9.7
2015-Jan-23 00:33N 34°32' E 135°07'7 7.0
2015-Jan-22 23:33N 34°25' E 135°03'1312.9
2015-Jan-22 22:33N 34°13' E 134°59'10 9.6
2015-Jan-22 21:33N 34°03' E 134°59'  
Track history (hours):
 
Tides and Currents Weather Stations Pressure Air Temp Water Temp Dewpoint Dewpoint Depression Visibility Wind Speed Wind Dir Waves Ship Positions

Al Hamla

Last reported at 2015-Jan-31 09:20 UTC. Time now 2015-Feb-01 05:43 UTC.
Position N 01°54' E 102°20'.

Length 350 m; draft 9.5 m.

Type: Tanker. MMSI: 538002922.

Date/timePositionNaut miles runAvg speedWind from/ knotsBaromVisibWave heightAir tempDewpointWater temp
2015-Jan-31 09:20N 01°54' E 102°20'1316.7
2015-Jan-31 08:33N 01°49' E 102°32'8416.5
2015-Jan-31 03:28N 01°10' E 103°47'1010.4
2015-Jan-31 02:33N 01°14' E 103°55'  
2015-Jan-25 06:33N 33°55' E 134°56'1515.7
2015-Jan-25 05:33N 34°10' E 134°57'1211.8
2015-Jan-25 04:33N 34°22' E 134°60'1313.1
2015-Jan-25 03:33N 34°33' E 135°07'8 7.3
2015-Jan-25 02:31N 34°37' E 134°59'1211.8
2015-Jan-25 01:29N 34°33' E 134°46'1311.5
2015-Jan-25 00:20N 34°45' E 134°41'8 0.2
2015-Jan-23 02:33N 34°37' E 134°42'1212.2
2015-Jan-23 01:32N 34°37' E 134°57'10 9.7
2015-Jan-23 00:33N 34°32' E 135°07'7 7.0
2015-Jan-22 23:33N 34°25' E 135°03'1312.9
2015-Jan-22 22:33N 34°13' E 134°59'10 9.6
2015-Jan-22 21:33N 34°03' E 134°59'  

Dump ship's entire track history